createdAt,value
2022-08-21T00:01:45.519Z,5.18
2022-08-21T00:04:14.645Z,4.72
2022-08-21T00:06:51.082Z,5.78
2022-08-21T00:09:19.740Z,5.47
2022-08-21T00:11:48.031Z,5.65
2022-08-21T00:14:16.024Z,4.90
2022-08-21T00:16:43.329Z,5.68
2022-08-21T00:19:10.619Z,5.43
2022-08-21T00:21:38.121Z,5.15
2022-08-21T00:24:06.095Z,4.07
2022-08-21T00:26:35.416Z,6.03
2022-08-21T00:29:05.321Z,7.22
2022-08-21T00:31:32.657Z,4.93
2022-08-21T00:34:00.814Z,5.47
2022-08-21T00:36:29.636Z,4.72
2022-08-21T00:38:57.645Z,5.05
2022-08-21T00:41:38.347Z,5.22
2022-08-21T00:44:09.478Z,5.68
2022-08-21T00:46:37.984Z,5.55
2022-08-21T00:49:07.777Z,5.60
2022-08-21T00:51:44.694Z,5.15
2022-08-21T00:54:18.126Z,4.90
2022-08-21T00:56:51.170Z,5.35
2022-08-21T00:59:21.131Z,5.65
2022-08-21T01:01:49.058Z,5.03
2022-08-21T01:04:17.328Z,6.28
2022-08-21T01:06:45.379Z,4.78
2022-08-21T01:09:14.136Z,5.80
2022-08-21T01:11:44.047Z,4.55
2022-08-21T01:14:13.522Z,5.90
2022-08-21T01:16:47.195Z,4.70
2022-08-21T01:19:16.012Z,5.38
2022-08-21T01:21:43.985Z,5.07
2022-08-21T01:24:12.695Z,5.32
2022-08-21T01:26:40.914Z,5.03
2022-08-21T01:29:13.092Z,5.35
2022-08-21T01:31:40.470Z,5.47
2022-08-21T01:34:09.232Z,4.75
2022-08-21T01:36:36.693Z,5.57
2022-08-21T01:39:06.308Z,4.50
2022-08-21T01:41:33.643Z,4.82
2022-08-21T01:44:00.993Z,4.28
2022-08-21T01:46:28.476Z,4.07
2022-08-21T01:48:56.009Z,5.00
2022-08-21T01:51:23.335Z,4.00
2022-08-21T01:53:51.031Z,4.78
2022-08-21T01:56:19.519Z,4.15
2022-08-21T01:58:48.765Z,5.32
2022-08-21T02:01:17.085Z,4.47
2022-08-21T02:03:44.595Z,4.72
2022-08-21T02:06:18.524Z,4.35
2022-08-21T02:08:47.332Z,4.47
2022-08-21T02:11:15.024Z,4.47
2022-08-21T02:13:42.414Z,4.70
2022-08-21T02:16:10.327Z,4.35
2022-08-21T02:18:37.839Z,5.20
2022-08-21T02:21:06.729Z,4.50
2022-08-21T02:23:34.575Z,3.83
2022-08-21T02:26:04.014Z,4.40
2022-08-21T02:28:32.001Z,4.07
2022-08-21T02:30:59.758Z,4.25
2022-08-21T02:33:27.982Z,4.78
2022-08-21T02:35:56.137Z,4.35
2022-08-21T02:38:34.273Z,3.97
2022-08-21T02:41:01.992Z,4.45
2022-08-21T02:43:29.860Z,4.60
2022-08-21T02:45:59.104Z,3.97
2022-08-21T02:48:30.041Z,4.35
2022-08-21T02:51:09.507Z,3.80
2022-08-21T02:53:37.132Z,3.97
2022-08-21T02:56:07.170Z,6.10
2022-08-21T02:58:42.646Z,3.47
2022-08-21T03:01:11.385Z,4.57
2022-08-21T03:03:41.955Z,5.32
2022-08-21T03:06:12.544Z,4.93
2022-08-21T03:08:40.918Z,4.68
2022-08-21T03:11:08.710Z,3.72
2022-08-21T03:13:38.079Z,4.57
2022-08-21T03:16:05.682Z,6.40
2022-08-21T03:18:37.771Z,4.70
2022-08-21T03:21:06.427Z,3.53
2022-08-21T03:23:33.790Z,4.25
2022-08-21T03:26:01.945Z,4.22
2022-08-21T03:28:30.198Z,3.97
2022-08-21T03:30:57.683Z,5.50
2022-08-21T03:33:25.343Z,3.70
2022-08-21T03:36:04.570Z,3.70
2022-08-21T03:38:33.637Z,3.90
2022-08-21T03:41:01.666Z,4.50
2022-08-21T03:43:31.309Z,5.43
2022-08-21T03:46:01.906Z,4.18
2022-08-21T03:48:30.103Z,4.35
2022-08-21T03:50:57.718Z,3.78
2022-08-21T03:53:25.923Z,6.40
2022-08-21T03:55:53.791Z,5.43
2022-08-21T03:58:24.247Z,6.90
2022-08-21T04:00:55.091Z,9.00
2022-08-21T04:03:22.493Z,8.55
2022-08-21T04:05:49.978Z,9.75
2022-08-21T04:08:22.301Z,10.00
2022-08-21T04:10:53.446Z,10.68
2022-08-21T04:13:21.837Z,9.45
2022-08-21T04:15:49.580Z,11.00
2022-08-21T04:18:17.648Z,12.07
2022-08-21T04:20:50.292Z,12.00
2022-08-21T04:23:23.510Z,13.85
2022-08-21T04:25:53.405Z,15.35
2022-08-21T04:28:21.425Z,15.55
2022-08-21T04:30:51.979Z,14.23
2022-08-21T04:33:19.939Z,14.27
2022-08-21T04:35:47.843Z,13.10
2022-08-21T04:38:15.263Z,14.80
2022-08-21T04:40:43.092Z,15.70
2022-08-21T04:43:11.749Z,15.40
2022-08-21T04:45:43.219Z,15.30
2022-08-21T04:48:14.356Z,15.25
2022-08-21T04:51:32.172Z,17.02
2022-08-21T04:54:09.937Z,16.20
2022-08-21T04:56:43.621Z,16.75
2022-08-21T04:59:22.102Z,16.42
2022-08-21T05:01:50.177Z,17.98
2022-08-21T05:04:23.187Z,21.90
2022-08-21T05:06:52.128Z,18.83
2022-08-21T05:09:20.637Z,18.15
2022-08-21T05:11:49.728Z,18.98
2022-08-21T05:14:17.057Z,19.52
2022-08-21T05:16:44.975Z,18.80
2022-08-21T05:19:12.809Z,18.85
2022-08-21T05:21:44.392Z,20.05
2022-08-21T05:24:12.473Z,19.45
2022-08-21T05:26:46.321Z,17.63
2022-08-21T05:29:16.955Z,19.90
2022-08-21T05:31:46.522Z,18.02
2022-08-21T05:34:17.125Z,20.65
2022-08-21T05:36:45.112Z,20.15
2022-08-21T05:39:13.102Z,18.08
2022-08-21T05:41:40.398Z,20.10
2022-08-21T05:44:10.086Z,22.20
2022-08-21T05:46:37.900Z,21.98
2022-08-21T05:49:05.191Z,18.88
2022-08-21T05:51:32.689Z,18.05
2022-08-21T05:54:00.245Z,19.38
2022-08-21T05:56:27.590Z,18.73
2022-08-21T05:58:55.033Z,19.98
2022-08-21T06:01:22.352Z,19.45
2022-08-21T06:03:49.672Z,19.95
2022-08-21T06:06:17.028Z,20.42
2022-08-21T06:08:44.742Z,19.60
2022-08-21T06:11:12.162Z,20.23
2022-08-21T06:13:40.050Z,20.00
2022-08-21T06:16:16.065Z,20.42
2022-08-21T06:18:45.165Z,21.25
2022-08-21T06:21:13.940Z,18.45
2022-08-21T06:23:42.149Z,19.98
2022-08-21T06:26:11.260Z,18.20
2022-08-21T06:28:39.361Z,19.98
2022-08-21T06:31:19.049Z,16.90
2022-08-21T06:33:46.871Z,20.58
2022-08-21T06:36:14.702Z,17.83
2022-08-21T06:38:42.486Z,19.38
2022-08-21T06:41:19.405Z,17.50
2022-08-21T06:43:51.868Z,17.45
2022-08-21T06:46:19.300Z,20.20
2022-08-21T06:48:46.622Z,20.45
2022-08-21T06:51:13.964Z,18.80
2022-08-21T06:53:41.322Z,19.02
2022-08-21T06:56:09.007Z,18.90
2022-08-21T06:58:36.623Z,23.05
2022-08-21T07:01:04.738Z,29.42
2022-08-21T07:03:35.533Z,28.77
2022-08-21T07:06:05.314Z,26.60
2022-08-21T07:08:32.813Z,32.03
2022-08-21T07:11:02.563Z,25.85
2022-08-21T07:13:30.851Z,28.30
2022-08-21T07:16:03.186Z,23.83
2022-08-21T07:18:32.037Z,23.73
2022-08-21T07:21:01.331Z,32.40
2022-08-21T07:23:36.162Z,28.00
2022-08-21T07:26:03.521Z,29.38
2022-08-21T07:28:31.928Z,23.35
2022-08-21T07:31:01.126Z,26.35
2022-08-21T07:33:30.931Z,23.75
2022-08-21T07:35:59.029Z,31.52
2022-08-21T07:38:27.010Z,28.38
2022-08-21T07:40:57.475Z,30.75
2022-08-21T07:43:24.835Z,26.33
2022-08-21T07:45:52.238Z,29.20
2022-08-21T07:48:19.565Z,29.35
2022-08-21T07:50:47.172Z,29.20
2022-08-21T07:53:15.359Z,22.95
2022-08-21T07:55:42.881Z,21.92
2022-08-21T07:58:10.222Z,19.27
2022-08-21T08:00:37.957Z,22.50
2022-08-21T08:03:05.274Z,21.17
2022-08-21T08:05:33.393Z,21.27
2022-08-21T08:08:00.726Z,18.55
2022-08-21T08:10:28.171Z,20.05
2022-08-21T08:12:56.039Z,24.75
2022-08-21T08:15:27.589Z,27.80
2022-08-21T08:17:55.874Z,25.85
2022-08-21T08:20:24.708Z,17.75
2022-08-21T08:22:52.133Z,16.13
2022-08-21T08:25:23.138Z,17.25
2022-08-21T08:27:50.768Z,15.07
2022-08-21T08:30:19.930Z,13.13
2022-08-21T08:32:48.783Z,11.95
2022-08-21T08:35:16.673Z,8.48
2022-08-21T08:37:47.938Z,14.55
2022-08-21T08:40:34.304Z,15.50
2022-08-21T08:43:01.991Z,13.23
2022-08-21T08:45:33.482Z,23.63
2022-08-21T08:48:14.228Z,16.40
2022-08-21T08:51:01.796Z,15.05
2022-08-21T08:53:46.356Z,15.88
2022-08-21T08:56:13.948Z,16.38
2022-08-21T08:58:45.831Z,15.35
2022-08-21T09:01:19.743Z,13.95
2022-08-21T09:03:50.969Z,13.52
2022-08-21T09:06:30.145Z,12.10
2022-08-21T09:09:10.080Z,16.45
2022-08-21T09:11:53.486Z,12.32
2022-08-21T09:14:54.085Z,13.38
2022-08-21T09:17:48.854Z,20.52
2022-08-21T09:20:39.762Z,15.32
2022-08-21T09:23:10.887Z,8.80
2022-08-21T09:26:03.828Z,10.43
2022-08-21T09:28:37.962Z,13.38
2022-08-21T09:31:09.593Z,12.68
2022-08-21T09:33:37.084Z,17.63
2022-08-21T09:36:05.493Z,13.85
2022-08-21T09:38:37.659Z,93.45
2022-08-21T09:41:11.120Z,82.03
2022-08-21T09:43:39.696Z,91.67
2022-08-21T09:46:11.771Z,48.50
2022-08-21T09:48:51.281Z,48.80
2022-08-21T09:51:40.184Z,31.13
2022-08-21T09:54:07.721Z,17.90
2022-08-21T09:56:59.182Z,26.52
2022-08-21T09:59:37.000Z,31.10
2022-08-21T10:02:32.329Z,16.42
2022-08-21T10:05:22.926Z,15.07
2022-08-21T10:07:50.908Z,14.48
2022-08-21T10:10:26.618Z,8.98
2022-08-21T10:13:26.438Z,15.10
2022-08-21T10:16:38.246Z,9.80
2022-08-21T10:19:49.482Z,16.13
2022-08-21T10:22:19.806Z,19.67
2022-08-21T10:24:58.941Z,11.43
2022-08-21T10:27:40.031Z,13.98
2022-08-21T10:30:32.473Z,12.20
2022-08-21T10:33:22.805Z,11.35
2022-08-21T10:35:59.102Z,15.32
2022-08-21T10:39:02.315Z,20.05
2022-08-21T10:41:49.533Z,16.55
2022-08-21T10:44:24.914Z,12.90
2022-08-21T10:47:21.189Z,14.43
2022-08-21T10:50:28.908Z,10.32
2022-08-21T10:53:25.777Z,13.57
2022-08-21T10:55:57.546Z,19.02
2022-08-21T10:58:49.735Z,12.38
2022-08-21T11:01:49.517Z,11.93
2022-08-21T11:04:29.912Z,13.05
2022-08-21T11:07:21.281Z,29.38
2022-08-21T11:09:50.417Z,23.45
2022-08-21T11:12:43.496Z,21.25
2022-08-21T11:15:28.704Z,121.53
2022-08-21T11:18:16.159Z,111.32
2022-08-21T11:21:07.588Z,106.40
2022-08-21T11:23:47.184Z,83.57
2022-08-21T11:26:23.431Z,62.72
2022-08-21T11:28:59.801Z,50.70
2022-08-21T11:31:42.254Z,38.42
2022-08-21T11:34:18.323Z,31.63
2022-08-21T11:37:04.136Z,28.70
2022-08-21T11:39:52.791Z,20.00
2022-08-21T11:42:20.087Z,20.48
2022-08-21T11:45:13.615Z,23.75
2022-08-21T11:48:24.800Z,18.02
2022-08-21T11:50:54.037Z,24.17
2022-08-21T11:53:37.532Z,36.75
2022-08-21T11:56:32.038Z,37.63
2022-08-21T11:59:07.915Z,28.60
2022-08-21T12:01:42.778Z,18.90
2022-08-21T12:04:36.365Z,33.92
2022-08-21T12:07:30.966Z,27.20
2022-08-21T12:10:00.953Z,31.33
2022-08-21T12:12:31.576Z,17.02
2022-08-21T12:15:20.556Z,29.25
2022-08-21T12:18:06.980Z,21.08
2022-08-21T12:20:50.622Z,19.30
2022-08-21T12:23:46.036Z,20.17
2022-08-21T12:29:15.200Z,13.45
2022-08-21T12:32:21.285Z,21.60
2022-08-21T12:35:08.313Z,37.28
2022-08-21T12:37:50.922Z,371.25
2022-08-21T12:40:44.416Z,227.60
2022-08-21T12:43:30.513Z,136.65
2022-08-21T12:46:00.083Z,127.93
2022-08-21T12:48:57.684Z,82.85
2022-08-21T12:51:34.489Z,69.18
2022-08-21T12:54:01.950Z,47.83
2022-08-21T12:56:32.493Z,41.15
2022-08-21T12:59:06.588Z,30.70
2022-08-21T13:01:50.255Z,26.42
2022-08-21T13:04:27.679Z,22.87
2022-08-21T13:06:59.885Z,16.17
2022-08-21T13:09:30.658Z,22.42
2022-08-21T13:11:58.946Z,19.10
2022-08-21T13:14:47.455Z,17.90
2022-08-21T13:17:25.976Z,21.58
2022-08-21T13:20:03.775Z,20.65
2022-08-21T13:22:33.727Z,16.02
2022-08-21T13:25:05.893Z,34.58
2022-08-21T13:27:35.306Z,41.20
2022-08-21T13:30:14.032Z,47.53
2022-08-21T13:32:48.384Z,41.72
2022-08-21T13:37:49.313Z,31.77
2022-08-21T13:40:42.975Z,24.83
2022-08-21T13:43:18.393Z,18.88
2022-08-21T13:45:53.341Z,17.88
2022-08-21T13:48:27.255Z,23.25
2022-08-21T13:50:55.153Z,26.10
2022-08-21T13:53:30.021Z,21.00
2022-08-21T13:56:00.715Z,21.58
2022-08-21T13:58:44.762Z,24.13
2022-08-21T14:01:32.336Z,19.73
2022-08-21T14:04:08.392Z,16.77
2022-08-21T14:06:38.532Z,39.33
2022-08-21T14:09:22.683Z,478.88
2022-08-21T14:11:50.018Z,347.25
2022-08-21T14:14:29.245Z,319.05
2022-08-21T14:17:01.105Z,245.70
2022-08-21T14:19:42.671Z,277.25
2022-08-21T14:22:48.114Z,236.45
2022-08-21T14:28:18.936Z,133.43
2022-08-21T14:30:47.630Z,125.78
2022-08-21T14:33:32.754Z,132.32
2022-08-21T14:36:01.909Z,122.65
2022-08-21T14:38:29.811Z,129.73
2022-08-21T14:41:05.902Z,123.25
2022-08-21T14:43:33.308Z,142.55
2022-08-21T14:46:02.447Z,124.15
2022-08-21T14:48:29.759Z,125.65
2022-08-21T14:51:00.577Z,127.72
2022-08-21T14:53:28.286Z,116.15
2022-08-21T14:56:07.903Z,112.05
2022-08-21T14:58:45.117Z,105.45
2022-08-21T15:01:14.944Z,108.10
2022-08-21T15:03:42.599Z,103.78
2022-08-21T15:06:10.747Z,107.82
2022-08-21T15:08:38.146Z,104.13
2022-08-21T15:11:17.438Z,92.32
2022-08-21T15:13:51.477Z,81.00
2022-08-21T15:16:18.797Z,68.57
2022-08-21T15:18:46.038Z,66.88
2022-08-21T15:21:13.387Z,60.33
2022-08-21T15:23:43.635Z,55.55
2022-08-21T15:26:11.626Z,53.67
2022-08-21T15:28:39.106Z,49.63
2022-08-21T15:31:06.780Z,37.17
2022-08-21T15:33:34.914Z,35.78
2022-08-21T15:36:02.514Z,69.47
2022-08-21T15:38:30.277Z,78.45
2022-08-21T15:40:58.062Z,71.47
2022-08-21T15:43:30.561Z,92.28
2022-08-21T15:46:00.696Z,59.40
2022-08-21T15:48:28.541Z,38.80
2022-08-21T15:50:55.876Z,35.85
2022-08-21T15:53:23.431Z,26.90
2022-08-21T15:55:50.762Z,25.25
2022-08-21T15:58:20.896Z,20.83
2022-08-21T16:00:48.291Z,27.70
2022-08-21T16:03:18.870Z,22.25
2022-08-21T16:05:49.291Z,22.50
2022-08-21T16:08:16.931Z,23.95
2022-08-21T16:10:44.286Z,13.23
2022-08-21T16:13:25.842Z,15.13
2022-08-21T16:15:54.151Z,18.95
2022-08-21T16:18:23.888Z,11.48
2022-08-21T16:20:51.264Z,18.27
2022-08-21T16:23:18.748Z,11.68
2022-08-21T16:25:46.727Z,54.90
2022-08-21T16:28:16.574Z,20.58
2022-08-21T16:30:48.248Z,11.77
2022-08-21T16:33:34.269Z,23.92
2022-08-21T16:36:02.043Z,22.67
2022-08-21T16:38:30.633Z,24.48
2022-08-21T16:40:59.247Z,26.08
2022-08-21T16:43:29.928Z,32.10
2022-08-21T16:45:58.812Z,58.58
2022-08-21T16:48:26.578Z,37.92
2022-08-21T16:50:53.828Z,38.05
2022-08-21T16:53:21.640Z,33.95
2022-08-21T16:55:50.514Z,31.35
2022-08-21T16:58:26.629Z,25.05
2022-08-21T17:00:54.481Z,21.65
2022-08-21T17:03:32.519Z,15.70
2022-08-21T17:06:00.706Z,24.73
2022-08-21T17:08:28.372Z,37.63
2022-08-21T17:10:55.993Z,31.05
2022-08-21T17:13:23.375Z,26.33
2022-08-21T17:15:50.797Z,24.75
2022-08-21T17:18:20.383Z,18.58
2022-08-21T17:20:48.650Z,14.57
2022-08-21T17:23:17.398Z,13.25
2022-08-21T17:25:49.516Z,19.75
2022-08-21T17:28:27.667Z,16.95
2022-08-21T17:30:58.438Z,14.00
2022-08-21T17:33:27.328Z,21.98
2022-08-21T17:35:54.903Z,14.48
2022-08-21T17:38:22.267Z,17.17
2022-08-21T17:40:50.671Z,12.82
2022-08-21T17:43:18.067Z,7.70
2022-08-21T17:45:45.836Z,9.02
2022-08-21T17:48:13.471Z,7.45
2022-08-21T17:50:40.860Z,8.00
2022-08-21T17:53:08.225Z,7.07
2022-08-21T17:55:36.177Z,7.38
2022-08-21T17:58:04.343Z,8.90
2022-08-21T18:00:32.579Z,7.45
2022-08-21T18:03:03.774Z,8.07
2022-08-21T18:05:31.219Z,6.50
2022-08-21T18:07:58.920Z,6.70
2022-08-21T18:10:26.285Z,7.03
2022-08-21T18:12:54.139Z,10.40
2022-08-21T18:15:22.089Z,9.95
2022-08-21T18:17:51.849Z,22.42
2022-08-21T18:20:21.852Z,21.15
2022-08-21T18:22:49.301Z,18.77
2022-08-21T18:25:17.304Z,11.35
2022-08-21T18:27:46.254Z,10.30
2022-08-21T18:30:23.679Z,13.43
2022-08-21T18:32:54.493Z,8.95
2022-08-21T18:35:23.072Z,11.30
2022-08-21T18:37:50.404Z,8.60
2022-08-21T18:40:18.120Z,10.27
2022-08-21T18:42:55.262Z,6.38
2022-08-21T18:45:24.111Z,11.15
2022-08-21T18:47:55.052Z,21.13
2022-08-21T18:50:25.146Z,16.20
2022-08-21T18:52:54.516Z,15.05
2022-08-21T18:55:23.088Z,13.43
2022-08-21T18:57:54.026Z,27.00
2022-08-21T19:00:26.728Z,22.25
2022-08-21T19:02:54.469Z,12.43
2022-08-21T19:05:23.357Z,19.33
2022-08-21T19:07:51.088Z,17.23
2022-08-21T19:10:28.126Z,13.15
2022-08-21T19:13:00.680Z,19.05
2022-08-21T19:15:28.549Z,17.05
2022-08-21T19:17:58.171Z,19.42
2022-08-21T19:20:34.611Z,20.02
2022-08-21T19:23:06.381Z,14.82
2022-08-21T19:25:35.688Z,11.98
2022-08-21T19:28:10.891Z,13.95
2022-08-21T19:30:42.296Z,13.02
2022-08-21T19:33:26.502Z,13.07
2022-08-21T19:35:54.051Z,8.30
2022-08-21T19:38:21.777Z,7.70
2022-08-21T19:40:49.800Z,9.55
2022-08-21T19:46:05.136Z,14.13
2022-08-21T19:48:33.642Z,17.67
2022-08-21T19:51:00.919Z,17.85
2022-08-21T19:53:28.192Z,14.07
2022-08-21T19:55:55.470Z,24.13
2022-08-21T19:58:43.221Z,29.80
2022-08-21T20:03:59.423Z,28.00
2022-08-21T20:06:27.237Z,23.73
2022-08-21T20:08:55.300Z,15.73
2022-08-21T20:11:35.945Z,19.48
2022-08-21T20:14:04.782Z,19.23
2022-08-21T20:16:32.563Z,16.95
2022-08-21T20:19:03.145Z,14.52
2022-08-21T20:21:30.789Z,15.27
2022-08-21T20:24:14.556Z,17.25
2022-08-21T20:27:01.922Z,17.65
2022-08-21T20:29:38.976Z,15.05
2022-08-21T20:32:12.151Z,15.38
2022-08-21T20:34:55.543Z,13.90
2022-08-21T20:37:35.851Z,15.85
2022-08-21T20:40:10.272Z,9.85
2022-08-21T20:42:44.870Z,6.40
2022-08-21T20:45:18.603Z,13.57
2022-08-21T20:47:46.094Z,11.43
2022-08-21T20:50:17.542Z,11.93
2022-08-21T20:52:49.612Z,7.65
2022-08-21T20:55:29.354Z,8.43
2022-08-21T20:58:06.045Z,9.35
2022-08-21T21:00:40.274Z,8.52
2022-08-21T21:03:30.297Z,6.97
2022-08-21T21:06:09.451Z,11.77
2022-08-21T21:08:46.743Z,7.20
2022-08-21T21:11:23.581Z,7.50
2022-08-21T21:14:13.172Z,6.30
2022-08-21T21:16:51.238Z,4.38
2022-08-21T21:19:37.321Z,7.85
2022-08-21T21:22:10.960Z,6.32
2022-08-21T21:24:56.537Z,3.87
2022-08-21T21:27:49.222Z,7.43
2022-08-21T21:30:33.210Z,6.70
2022-08-21T21:33:00.728Z,6.78
2022-08-21T21:35:41.629Z,4.55
2022-08-21T21:38:19.216Z,5.68
2022-08-21T21:40:53.702Z,6.53
2022-08-21T21:43:27.008Z,4.50
2022-08-21T21:46:26.421Z,5.78
2022-08-21T21:49:23.956Z,5.65
2022-08-21T21:52:12.903Z,5.90
2022-08-21T21:55:05.943Z,5.43
2022-08-21T21:57:46.324Z,7.30
2022-08-21T22:00:21.545Z,5.38
2022-08-21T22:03:05.239Z,6.55
2022-08-21T22:05:38.246Z,4.72
2022-08-21T22:08:30.648Z,5.22
2022-08-21T22:11:40.703Z,4.28
2022-08-21T22:14:16.997Z,4.53
2022-08-21T22:16:48.733Z,3.63
2022-08-21T22:19:33.772Z,4.75
2022-08-21T22:24:37.696Z,2.97
2022-08-21T22:27:14.933Z,4.38
2022-08-21T22:29:54.582Z,3.67
2022-08-21T22:32:37.653Z,4.13
2022-08-21T22:35:19.773Z,3.10
2022-08-21T22:37:53.463Z,5.00
2022-08-21T22:40:27.958Z,5.57
2022-08-21T22:43:14.858Z,2.70
2022-08-21T22:46:01.846Z,4.97
2022-08-21T22:48:50.901Z,3.85
2022-08-21T22:51:37.431Z,3.88
2022-08-21T22:54:16.850Z,3.65
2022-08-21T22:57:02.313Z,2.92
2022-08-21T22:59:35.099Z,3.63
2022-08-21T23:02:24.411Z,3.17
2022-08-21T23:04:56.743Z,3.05
2022-08-21T23:07:34.936Z,4.38
2022-08-21T23:10:26.121Z,3.88
2022-08-21T23:16:01.484Z,3.53
2022-08-21T23:18:48.373Z,3.72
2022-08-21T23:21:45.978Z,2.10
2022-08-21T23:24:25.362Z,3.72
2022-08-21T23:27:03.989Z,6.15
2022-08-21T23:29:56.252Z,2.75
2022-08-21T23:36:10.462Z,3.00
2022-08-21T23:38:56.756Z,3.65
2022-08-21T23:41:39.381Z,2.90
2022-08-21T23:44:35.990Z,3.25
2022-08-21T23:47:33.440Z,3.72
2022-08-21T23:50:22.527Z,2.47
2022-08-21T23:53:20.456Z,3.22
2022-08-21T23:56:07.487Z,1.70
2022-08-21T23:58:50.719Z,4.38
